Terminal Aerodrome Forecast
Issued by NWS

Home | Current Version | Previous Version | Text Only | Print | Product List | Glossary On
Versions: 1 2 3 4 5 6 7 8 9 10 11 12 13 14 15 16 17 18 19 20 21
000
FTUS46 KPQR 200527
TAFONP
TAF
KONP 200527Z 2006/2106 14008KT P6SM VCSH SCT025 BKN050
     FM200700 13011G19KT P6SM -RA OVC050
     FM201500 15009KT 5SM -RA OVC035
     FM201900 16011G18KT P6SM -SHRA BKN050 OVC070
     FM210000 17011KT P6SM OVC050=

USA.gov is the U.S. government's official web portal to all federal, state and local government web resources and services.